createdAt,value
2018-03-03T00:00:05.957Z,-2.53
2018-03-03T00:01:05.862Z,-2.57
2018-03-03T00:02:05.780Z,-2.53
2018-03-03T00:03:05.689Z,-2.47
2018-03-03T00:04:05.612Z,-2.50
2018-03-03T00:05:05.526Z,-2.46
2018-03-03T00:06:05.445Z,-2.53
2018-03-03T00:07:05.355Z,-2.56
2018-03-03T00:08:05.275Z,-2.53
2018-03-03T00:09:05.189Z,-2.50
2018-03-03T00:10:05.107Z,-2.53
2018-03-03T00:11:05.016Z,-2.62
2018-03-03T00:12:04.940Z,-2.56
2018-03-03T00:13:04.846Z,-2.54
2018-03-03T00:14:04.776Z,-2.50
2018-03-03T00:15:04.685Z,-2.53
2018-03-03T00:16:04.603Z,-2.50
2018-03-03T00:17:04.514Z,-2.50
2018-03-03T00:18:04.433Z,-2.49
2018-03-03T00:19:04.344Z,-2.50
2018-03-03T00:20:04.265Z,-2.64
2018-03-03T00:21:04.175Z,-2.60
2018-03-03T00:22:04.095Z,-2.65
2018-03-03T00:23:04.008Z,-2.56
2018-03-03T00:24:03.927Z,-2.50
2018-03-03T00:25:03.838Z,-2.52
2018-03-03T00:26:03.764Z,-2.52
2018-03-03T00:27:03.673Z,-2.52
2018-03-03T00:28:03.589Z,-2.57
2018-03-03T00:29:03.499Z,-2.57
2018-03-03T00:30:03.426Z,-2.52
2018-03-03T00:31:03.331Z,-2.53
2018-03-03T00:32:03.255Z,-2.53
2018-03-03T00:33:03.164Z,-2.64
2018-03-03T00:34:03.086Z,-2.64
2018-03-03T00:35:03.006Z,-2.67
2018-03-03T00:36:02.921Z,-2.67
2018-03-03T00:37:02.826Z,-2.71
2018-03-03T00:38:02.747Z,-2.74
2018-03-03T00:39:02.654Z,-2.70
2018-03-03T00:40:02.593Z,-2.71
2018-03-03T00:41:02.522Z,-2.74
2018-03-03T00:42:02.412Z,-2.74
2018-03-03T00:43:02.322Z,-2.71
2018-03-03T00:44:02.242Z,-2.67
2018-03-03T00:45:02.149Z,-2.70
2018-03-03T00:46:02.075Z,-2.70
2018-03-03T00:47:01.982Z,-2.71
2018-03-03T00:48:01.908Z,-2.65
2018-03-03T00:49:01.820Z,-2.71
2018-03-03T00:50:01.746Z,-2.70
2018-03-03T00:51:01.646Z,-2.68
2018-03-03T00:52:01.575Z,-2.67
2018-03-03T00:53:01.477Z,-2.65
2018-03-03T00:54:01.403Z,-2.80
2018-03-03T00:55:01.311Z,-2.82
2018-03-03T00:56:01.233Z,-2.68
2018-03-03T00:57:01.140Z,-2.70
2018-03-03T00:58:01.067Z,-2.73
2018-03-03T00:59:00.971Z,-2.70
2018-03-03T01:00:00.889Z,-2.73
2018-03-03T01:01:00.808Z,-2.74
2018-03-03T01:02:00.722Z,-2.68
2018-03-03T01:03:00.644Z,-2.77
2018-03-03T01:04:00.552Z,-2.67
2018-03-03T01:05:00.475Z,-2.67
2018-03-03T01:06:00.381Z,-2.65
2018-03-03T01:07:00.306Z,-2.64
2018-03-03T01:08:00.215Z,-2.68
2018-03-03T01:09:00.139Z,-2.70
2018-03-03T01:10:00.044Z,-2.67
2018-03-03T01:10:59.968Z,-2.64
2018-03-03T01:11:59.875Z,-2.67
2018-03-03T01:12:59.800Z,-2.67
2018-03-03T01:13:59.714Z,-2.70
2018-03-03T01:14:59.637Z,-2.65
2018-03-03T01:15:59.541Z,-2.67
2018-03-03T01:16:59.466Z,-2.70
2018-03-03T01:17:59.371Z,-2.70
2018-03-03T01:18:59.295Z,-2.68
2018-03-03T01:19:59.203Z,-2.70
2018-03-03T01:20:59.125Z,-2.71
2018-03-03T01:21:59.035Z,-2.77
2018-03-03T01:22:58.962Z,-2.74
2018-03-03T01:23:58.863Z,-2.70
2018-03-03T01:24:58.784Z,-2.68
2018-03-03T01:25:58.695Z,-2.74
2018-03-03T01:26:58.618Z,-2.67
2018-03-03T01:27:58.530Z,-2.65
2018-03-03T01:28:58.451Z,-2.68
2018-03-03T01:29:58.359Z,-2.68
2018-03-03T01:30:58.280Z,-2.68
2018-03-03T01:31:58.196Z,-2.70
2018-03-03T01:32:58.105Z,-2.71
2018-03-03T01:33:58.026Z,-2.64
2018-03-03T01:34:57.938Z,-2.71
2018-03-03T01:35:57.859Z,-2.65
2018-03-03T01:36:57.768Z,-2.67
2018-03-03T01:37:57.690Z,-2.71
2018-03-03T01:38:57.601Z,-2.73
2018-03-03T01:39:57.521Z,-2.80
2018-03-03T01:40:57.431Z,-2.67
2018-03-03T01:41:57.352Z,-2.70
2018-03-03T01:42:57.261Z,-2.74
2018-03-03T01:43:57.186Z,-2.65
2018-03-03T01:44:57.095Z,-2.70
2018-03-03T01:45:57.015Z,-2.70
2018-03-03T01:46:56.924Z,-2.73
2018-03-03T01:47:56.847Z,-2.71
2018-03-03T01:48:56.755Z,-2.71
2018-03-03T01:49:56.679Z,-2.73
2018-03-03T01:50:56.584Z,-2.68
2018-03-03T01:51:56.508Z,-2.67
2018-03-03T01:52:56.418Z,-2.80
2018-03-03T01:53:56.343Z,-2.85
2018-03-03T01:54:56.248Z,-2.82
2018-03-03T01:55:56.171Z,-2.83
2018-03-03T01:56:56.083Z,-2.78
2018-03-03T01:57:56.004Z,-2.78
2018-03-03T01:58:55.912Z,-2.83
2018-03-03T01:59:55.833Z,-2.74
2018-03-03T02:00:55.744Z,-2.83
2018-03-03T02:01:55.665Z,-2.75
2018-03-03T02:02:55.573Z,-2.77
2018-03-03T02:03:55.497Z,-2.82
2018-03-03T02:04:55.407Z,-2.77
2018-03-03T02:05:55.327Z,-2.78
2018-03-03T02:06:55.236Z,-2.85
2018-03-03T02:07:55.160Z,-2.80
2018-03-03T02:08:55.072Z,-2.73
2018-03-03T02:09:54.988Z,-2.71
2018-03-03T02:10:54.899Z,-2.83
2018-03-03T02:11:54.823Z,-2.80
2018-03-03T02:12:54.728Z,-2.85
2018-03-03T02:13:54.658Z,-2.80
2018-03-03T02:14:54.563Z,-2.75
2018-03-03T02:15:54.484Z,-2.85
2018-03-03T02:16:54.394Z,-2.73
2018-03-03T02:17:54.312Z,-2.78
2018-03-03T02:18:54.226Z,-2.88
2018-03-03T02:19:54.141Z,-2.82
2018-03-03T02:20:54.057Z,-2.82
2018-03-03T02:21:53.975Z,-2.88
2018-03-03T02:22:53.884Z,-2.85
2018-03-03T02:23:53.808Z,-2.82
2018-03-03T02:24:53.718Z,-2.89
2018-03-03T02:25:53.641Z,-2.71
2018-03-03T02:26:53.549Z,-2.82
2018-03-03T02:27:53.470Z,-2.78
2018-03-03T02:28:53.383Z,-2.83
2018-03-03T02:29:53.301Z,-2.86
2018-03-03T02:30:53.209Z,-2.86
2018-03-03T02:31:53.138Z,-2.82
2018-03-03T02:32:53.042Z,-2.80
2018-03-03T02:33:52.967Z,-2.80
2018-03-03T02:34:52.872Z,-2.73
2018-03-03T02:35:52.794Z,-2.77
2018-03-03T02:36:52.706Z,-2.78
2018-03-03T02:37:52.625Z,-2.77
2018-03-03T02:38:52.537Z,-2.75
2018-03-03T02:39:52.458Z,-2.77
2018-03-03T02:40:52.367Z,-2.85
2018-03-03T02:41:52.288Z,-2.83
2018-03-03T02:42:52.193Z,-2.83
2018-03-03T02:43:52.119Z,-2.75
2018-03-03T02:44:52.028Z,-2.77
2018-03-03T02:45:51.948Z,-2.78
2018-03-03T02:46:51.856Z,-2.78
2018-03-03T02:47:51.783Z,-2.82
2018-03-03T02:48:51.690Z,-2.85
2018-03-03T02:49:51.610Z,-2.77
2018-03-03T02:50:51.521Z,-2.89
2018-03-03T02:51:51.439Z,-2.75
2018-03-03T02:52:51.351Z,-2.80
2018-03-03T02:53:51.273Z,-2.80
2018-03-03T02:54:51.181Z,-2.75
2018-03-03T02:55:51.103Z,-2.83
2018-03-03T02:56:51.012Z,-2.71
2018-03-03T02:57:50.934Z,-2.70
2018-03-03T02:58:50.846Z,-2.80
2018-03-03T02:59:50.763Z,-2.78
2018-03-03T03:00:50.676Z,-2.78
2018-03-03T03:01:50.597Z,-2.78
2018-03-03T03:02:50.504Z,-2.77
2018-03-03T03:03:50.430Z,-2.71
2018-03-03T03:04:50.334Z,-2.78
2018-03-03T03:05:50.261Z,-2.74
2018-03-03T03:06:50.171Z,-2.78
2018-03-03T03:07:50.096Z,-2.67
2018-03-03T03:08:50.003Z,-2.70
2018-03-03T03:09:49.919Z,-2.71
2018-03-03T03:10:49.828Z,-2.70
2018-03-03T03:11:49.767Z,-2.82
2018-03-03T03:12:49.665Z,-2.85
2018-03-03T03:13:49.584Z,-2.78
2018-03-03T03:14:49.491Z,-2.77
2018-03-03T03:15:49.414Z,-2.74
2018-03-03T03:16:49.326Z,-2.75
2018-03-03T03:17:49.244Z,-2.86
2018-03-03T03:18:49.152Z,-2.78
2018-03-03T03:19:49.075Z,-2.86
2018-03-03T03:20:48.990Z,-2.78
2018-03-03T03:21:48.905Z,-2.77
2018-03-03T03:22:48.809Z,-2.78
2018-03-03T03:23:48.737Z,-2.80
2018-03-03T03:24:48.646Z,-2.77
2018-03-03T03:25:48.570Z,-2.77
2018-03-03T03:26:48.476Z,-2.80
2018-03-03T03:27:48.402Z,-2.73
2018-03-03T03:28:48.307Z,-2.83
2018-03-03T03:29:48.233Z,-2.83
2018-03-03T03:30:48.138Z,-2.77
2018-03-03T03:31:48.060Z,-2.83
2018-03-03T03:32:47.969Z,-2.83
2018-03-03T03:33:47.891Z,-2.78
2018-03-03T03:34:47.810Z,-2.78
2018-03-03T03:35:47.720Z,-2.82
2018-03-03T03:36:47.637Z,-2.77
2018-03-03T03:37:47.553Z,-2.78
2018-03-03T03:38:47.458Z,-2.75
2018-03-03T03:39:47.383Z,-2.74
2018-03-03T03:40:47.298Z,-2.75
2018-03-03T03:41:47.218Z,-2.74
2018-03-03T03:42:47.123Z,-2.73
2018-03-03T03:43:47.049Z,-2.78
2018-03-03T03:44:46.955Z,-2.74
2018-03-03T03:45:46.877Z,-2.70
2018-03-03T03:46:46.817Z,-2.68
2018-03-03T03:47:46.710Z,-2.78
2018-03-03T03:48:46.616Z,-2.71
2018-03-03T03:49:46.538Z,-2.70
2018-03-03T03:50:46.448Z,-2.73
2018-03-03T03:51:46.371Z,-2.67
2018-03-03T03:52:46.280Z,-2.67
2018-03-03T03:53:46.200Z,-2.65
2018-03-03T03:54:46.108Z,-2.73
2018-03-03T03:55:46.031Z,-2.70
2018-03-03T03:56:45.942Z,-2.64
2018-03-03T03:57:45.862Z,-2.70
2018-03-03T03:58:45.771Z,-2.67
2018-03-03T03:59:45.701Z,-2.67
2018-03-03T04:00:45.605Z,-2.70
2018-03-03T04:01:45.524Z,-2.67
2018-03-03T04:02:45.434Z,-2.71
2018-03-03T04:03:45.355Z,-2.67
2018-03-03T04:04:45.269Z,-2.64
2018-03-03T04:05:45.187Z,-2.68
2018-03-03T04:06:45.103Z,-2.62
2018-03-03T04:07:45.019Z,-2.59
2018-03-03T04:08:44.926Z,-2.62
2018-03-03T04:09:44.849Z,-2.62
2018-03-03T04:10:44.763Z,-2.60
2018-03-03T04:11:44.670Z,-2.60
2018-03-03T04:12:44.596Z,-2.64
2018-03-03T04:13:44.502Z,-2.64
2018-03-03T04:14:44.472Z,-2.67
2018-03-03T04:15:44.338Z,-2.53
2018-03-03T04:16:44.277Z,-2.60
2018-03-03T04:17:44.170Z,-2.62
2018-03-03T04:18:44.183Z,-2.49
2018-03-03T04:19:44.000Z,-2.64
2018-03-03T04:20:43.997Z,-2.56
2018-03-03T04:21:43.826Z,-2.57
2018-03-03T04:22:43.755Z,-2.53
2018-03-03T04:23:43.661Z,-2.59
2018-03-03T04:24:43.584Z,-2.56
2018-03-03T04:25:43.489Z,-2.56
2018-03-03T04:26:43.420Z,-2.52
2018-03-03T04:27:43.320Z,-2.54
2018-03-03T04:28:43.331Z,-2.56
2018-03-03T04:29:43.149Z,-2.59
2018-03-03T04:30:43.143Z,-2.53
2018-03-03T04:31:42.985Z,-2.57
2018-03-03T04:32:42.948Z,-2.64
2018-03-03T04:33:42.808Z,-2.57
2018-03-03T04:34:42.755Z,-2.59
2018-03-03T04:35:42.645Z,-2.56
2018-03-03T04:36:42.667Z,-2.64
2018-03-03T04:37:42.481Z,-2.59
2018-03-03T04:38:42.478Z,-2.59
2018-03-03T04:39:42.302Z,-2.67
2018-03-03T04:40:42.283Z,-2.57
2018-03-03T04:41:42.135Z,-2.52
2018-03-03T04:42:42.093Z,-2.56
2018-03-03T04:43:41.967Z,-2.64
2018-03-03T04:44:41.899Z,-2.54
2018-03-03T04:45:41.800Z,-2.65
2018-03-03T04:46:41.724Z,-2.65
2018-03-03T04:47:41.629Z,-2.57
2018-03-03T04:48:41.552Z,-2.57
2018-03-03T04:49:41.462Z,-2.53
2018-03-03T04:50:41.389Z,-2.54
2018-03-03T04:51:41.291Z,-2.54
2018-03-03T04:52:41.236Z,-2.53
2018-03-03T04:53:41.121Z,-2.42
2018-03-03T04:54:41.046Z,-2.49
2018-03-03T04:55:40.954Z,-2.47
2018-03-03T04:56:40.958Z,-2.46
2018-03-03T04:57:40.784Z,-2.47
2018-03-03T04:58:40.704Z,-2.35
2018-03-03T04:59:40.615Z,-2.42
2018-03-03T05:00:40.541Z,-2.46
2018-03-03T05:01:40.445Z,-2.41
2018-03-03T05:02:40.388Z,-2.36
2018-03-03T05:03:40.276Z,-2.38
2018-03-03T05:04:40.292Z,-2.35
2018-03-03T05:05:40.110Z,-2.41
2018-03-03T05:06:40.030Z,-2.45
2018-03-03T05:07:39.941Z,-2.28
2018-03-03T05:08:39.861Z,-2.39
2018-03-03T05:09:39.768Z,-2.36
2018-03-03T05:10:39.689Z,-2.35
2018-03-03T05:11:39.600Z,-2.46
2018-03-03T05:12:39.522Z,-2.47
2018-03-03T05:13:39.433Z,-2.39
2018-03-03T05:14:39.434Z,-2.41
2018-03-03T05:15:39.264Z,-2.32
2018-03-03T05:16:39.243Z,-2.42
2018-03-03T05:17:39.093Z,-2.35
2018-03-03T05:18:39.050Z,-2.35
2018-03-03T05:19:38.923Z,-2.38
2018-03-03T05:20:38.859Z,-2.39
2018-03-03T05:21:38.757Z,-2.38
2018-03-03T05:22:38.769Z,-2.30
2018-03-03T05:23:38.584Z,-2.39
2018-03-03T05:24:38.578Z,-2.32
2018-03-03T05:25:38.417Z,-2.35
2018-03-03T05:26:38.343Z,-2.38
2018-03-03T05:27:38.248Z,-2.39
2018-03-03T05:28:38.172Z,-2.42
2018-03-03T05:29:38.072Z,-2.38
2018-03-03T05:30:38.003Z,-2.36
2018-03-03T05:31:37.918Z,-2.39
2018-03-03T05:32:37.826Z,-2.38
2018-03-03T05:33:37.749Z,-2.45
2018-03-03T05:34:37.657Z,-2.39
2018-03-03T05:35:37.618Z,-2.41
2018-03-03T05:36:37.496Z,-2.38
2018-03-03T05:37:37.407Z,-2.30
2018-03-03T05:38:37.323Z,-2.36
2018-03-03T05:39:37.244Z,-2.38
2018-03-03T05:40:37.151Z,-2.45
2018-03-03T05:41:37.073Z,-2.36
2018-03-03T05:42:36.982Z,-2.42
2018-03-03T05:43:36.959Z,-2.35
2018-03-03T05:44:36.812Z,-2.41
2018-03-03T05:45:36.737Z,-2.27
2018-03-03T05:46:36.643Z,-2.30
2018-03-03T05:47:36.566Z,-2.34
2018-03-03T05:48:36.482Z,-2.41
2018-03-03T05:49:36.402Z,-2.28
2018-03-03T05:50:36.309Z,-2.28
2018-03-03T05:51:36.296Z,-2.38
2018-03-03T05:52:36.138Z,-2.38
2018-03-03T05:53:36.061Z,-2.38
2018-03-03T05:54:35.965Z,-2.25
2018-03-03T05:55:35.890Z,-2.30
2018-03-03T05:56:35.799Z,-2.30
2018-03-03T05:57:35.820Z,-2.41
2018-03-03T05:58:35.630Z,-2.41
2018-03-03T05:59:35.557Z,-2.39
2018-03-03T06:00:35.459Z,-2.42
2018-03-03T06:01:35.383Z,-2.42
2018-03-03T06:02:35.291Z,-2.35
2018-03-03T06:03:35.211Z,-2.35
2018-03-03T06:04:35.123Z,-2.32
2018-03-03T06:05:35.050Z,-2.35
2018-03-03T06:06:34.954Z,-2.23
2018-03-03T06:07:34.877Z,-2.30
2018-03-03T06:08:34.790Z,-2.34
2018-03-03T06:09:34.709Z,-2.41
2018-03-03T06:10:34.615Z,-2.32
2018-03-03T06:11:34.584Z,-2.32
2018-03-03T06:12:34.449Z,-2.32
2018-03-03T06:13:34.369Z,-2.32
2018-03-03T06:14:34.280Z,-2.30
2018-03-03T06:15:34.300Z,-2.35
2018-03-03T06:16:34.109Z,-2.36
2018-03-03T06:17:34.109Z,-2.35
2018-03-03T06:18:33.943Z,-2.41
2018-03-03T06:19:33.865Z,-2.27
2018-03-03T06:20:33.781Z,-2.32
2018-03-03T06:21:33.726Z,-2.30
2018-03-03T06:22:33.603Z,-2.27
2018-03-03T06:23:33.637Z,-2.22
2018-03-03T06:24:33.432Z,-2.25
2018-03-03T06:25:33.445Z,-2.28
2018-03-03T06:26:33.265Z,-2.19
2018-03-03T06:27:33.190Z,-2.22
2018-03-03T06:28:33.101Z,-2.12
2018-03-03T06:29:33.023Z,-2.15
2018-03-03T06:30:32.941Z,-2.13
2018-03-03T06:31:32.854Z,-2.12
2018-03-03T06:32:32.759Z,-2.13
2018-03-03T06:33:32.682Z,-2.07
2018-03-03T06:34:32.592Z,-2.13
2018-03-03T06:35:32.516Z,-2.17
2018-03-03T06:36:32.430Z,-2.13
2018-03-03T06:37:32.380Z,-2.15
2018-03-03T06:38:32.298Z,-2.13
2018-03-03T06:39:32.169Z,-2.15
2018-03-03T06:40:32.109Z,-2.16
2018-03-03T06:41:32.010Z,-2.13
2018-03-03T06:42:32.021Z,-2.12
2018-03-03T06:43:31.828Z,-2.10
2018-03-03T06:44:31.828Z,-2.15
2018-03-03T06:45:31.667Z,-2.09
2018-03-03T06:46:31.634Z,-2.13
2018-03-03T06:47:31.495Z,-2.15
2018-03-03T06:48:31.446Z,-2.10
2018-03-03T06:49:31.326Z,-2.12
2018-03-03T06:50:31.354Z,-2.13
2018-03-03T06:51:31.157Z,-2.12
2018-03-03T06:52:31.166Z,-2.15
2018-03-03T06:53:30.987Z,-2.13
2018-03-03T06:54:30.973Z,-2.10
2018-03-03T06:55:30.822Z,-2.06
2018-03-03T06:56:30.781Z,-2.12
2018-03-03T06:57:30.649Z,-2.09
2018-03-03T06:58:30.589Z,-2.10
2018-03-03T06:59:30.477Z,-1.99
2018-03-03T07:00:30.500Z,-2.10
2018-03-03T07:01:30.322Z,-2.04
2018-03-03T07:02:30.318Z,-2.02
2018-03-03T07:03:30.155Z,-1.95
2018-03-03T07:04:30.070Z,-1.94
2018-03-03T07:05:29.979Z,-2.01
2018-03-03T07:06:29.923Z,-2.02
2018-03-03T07:07:29.807Z,-2.01
2018-03-03T07:08:29.836Z,-1.99
2018-03-03T07:09:29.641Z,-2.06
2018-03-03T07:10:29.643Z,-2.04
2018-03-03T07:11:29.469Z,-2.07
2018-03-03T07:12:29.451Z,-1.88
2018-03-03T07:13:29.308Z,-1.92
2018-03-03T07:14:29.262Z,-1.89
2018-03-03T07:15:29.138Z,-1.98
2018-03-03T07:16:29.066Z,-1.89
2018-03-03T07:17:28.967Z,-1.89
2018-03-03T07:18:28.978Z,-1.92
2018-03-03T07:19:28.800Z,-1.83
2018-03-03T07:20:28.792Z,-1.88
2018-03-03T07:21:28.625Z,-1.80
2018-03-03T07:22:28.656Z,-1.78
2018-03-03T07:23:28.463Z,-1.77
2018-03-03T07:24:28.408Z,-1.73
2018-03-03T07:25:28.290Z,-1.68
2018-03-03T07:26:28.309Z,-1.63
2018-03-03T07:27:28.126Z,-1.63
2018-03-03T07:28:28.127Z,-1.59
2018-03-03T07:29:27.955Z,-1.62
2018-03-03T07:30:27.930Z,-1.59
2018-03-03T07:31:27.789Z,-1.59
2018-03-03T07:32:27.740Z,-1.53
2018-03-03T07:33:27.617Z,-1.55
2018-03-03T07:34:27.649Z,-1.53
2018-03-03T07:35:27.450Z,-1.63
2018-03-03T07:36:27.456Z,-1.48
2018-03-03T07:37:27.283Z,-1.47
2018-03-03T07:38:27.265Z,-1.48
2018-03-03T07:39:27.114Z,-1.42
2018-03-03T07:40:27.074Z,-1.38
2018-03-03T07:41:26.947Z,-1.41
2018-03-03T07:42:26.945Z,-1.34
2018-03-03T07:43:26.784Z,-1.41
2018-03-03T07:44:26.704Z,-1.40
2018-03-03T07:45:26.697Z,-1.44
2018-03-03T07:46:26.526Z,-1.40
2018-03-03T07:47:26.505Z,-1.41
2018-03-03T07:48:26.364Z,-1.38
2018-03-03T07:49:26.313Z,-1.35
2018-03-03T07:50:26.200Z,-1.38
2018-03-03T07:51:26.226Z,-1.40
2018-03-03T07:52:26.027Z,-1.40
2018-03-03T07:53:25.951Z,-1.27
2018-03-03T07:54:25.935Z,-1.26
2018-03-03T07:55:25.795Z,-1.27
2018-03-03T07:56:25.746Z,-1.27
2018-03-03T07:57:25.682Z,-1.32
2018-03-03T07:58:25.550Z,-1.35
2018-03-03T07:59:25.445Z,-1.22
2018-03-03T08:00:25.464Z,-1.41
2018-03-03T08:01:25.270Z,-1.35
2018-03-03T08:02:25.275Z,-1.22
2018-03-03T08:03:25.101Z,-1.38
2018-03-03T08:04:25.075Z,-1.20
2018-03-03T08:05:24.938Z,-1.27
2018-03-03T08:06:24.888Z,-1.27
2018-03-03T08:07:24.767Z,-1.23
2018-03-03T08:08:24.798Z,-1.27
2018-03-03T08:09:24.598Z,-1.32
2018-03-03T08:10:24.606Z,-1.22
2018-03-03T08:11:24.437Z,-1.19
2018-03-03T08:12:24.415Z,-1.19
2018-03-03T08:13:24.265Z,-1.13
2018-03-03T08:14:24.223Z,-1.13
2018-03-03T08:15:24.100Z,-1.09
2018-03-03T08:16:24.130Z,-1.14
2018-03-03T08:17:23.932Z,-1.11
2018-03-03T08:18:23.942Z,-1.06
2018-03-03T08:19:23.763Z,-1.09
2018-03-03T08:20:23.750Z,-1.05
2018-03-03T08:21:23.595Z,-1.16
2018-03-03T08:22:23.563Z,-1.20
2018-03-03T08:23:23.429Z,-1.08
2018-03-03T08:24:23.365Z,-1.20
2018-03-03T08:25:23.272Z,-1.20
2018-03-03T08:26:23.279Z,-1.02
2018-03-03T08:27:23.096Z,-1.02
2018-03-03T08:28:23.088Z,-1.01
2018-03-03T08:29:22.926Z,-1.02
2018-03-03T08:30:22.895Z,-0.98
2018-03-03T08:31:22.757Z,-1.03
2018-03-03T08:32:22.702Z,-0.99
2018-03-03T08:33:22.592Z,-0.95
2018-03-03T08:34:22.617Z,-0.96
2018-03-03T08:35:22.428Z,-1.02
2018-03-03T08:36:22.420Z,-1.01
2018-03-03T08:37:22.259Z,-1.02
2018-03-03T08:38:22.230Z,-0.86
2018-03-03T08:39:22.093Z,-0.90
2018-03-03T08:40:22.037Z,-0.83
2018-03-03T08:41:21.926Z,-0.91
2018-03-03T08:42:21.947Z,-0.91
2018-03-03T08:43:21.761Z,-0.91
2018-03-03T08:44:21.756Z,-0.79
2018-03-03T08:45:21.592Z,-0.80
2018-03-03T08:46:21.566Z,-0.95
2018-03-03T08:47:21.427Z,-0.95
2018-03-03T08:48:21.376Z,-0.79
2018-03-03T08:49:21.260Z,-0.71
2018-03-03T08:50:21.282Z,-0.72
2018-03-03T08:51:21.103Z,-0.71
2018-03-03T08:52:21.092Z,-0.71
2018-03-03T08:53:20.925Z,-0.71
2018-03-03T08:54:20.900Z,-0.61
2018-03-03T08:55:20.764Z,-0.65
2018-03-03T08:56:20.710Z,-0.62
2018-03-03T08:57:20.591Z,-0.61
2018-03-03T08:58:20.626Z,-0.54
2018-03-03T08:59:20.427Z,-0.58
2018-03-03T09:00:20.427Z,-0.58
2018-03-03T09:01:20.257Z,-0.58
2018-03-03T09:02:20.237Z,-0.47
2018-03-03T09:03:20.094Z,-0.40
2018-03-03T09:04:20.043Z,-0.41
2018-03-03T09:05:19.922Z,-0.33
2018-03-03T09:06:19.955Z,-0.32
2018-03-03T09:07:19.760Z,-0.32
2018-03-03T09:08:19.767Z,-0.37
2018-03-03T09:09:19.590Z,-0.41
2018-03-03T09:10:19.570Z,-0.35
2018-03-03T09:11:19.442Z,-0.41
2018-03-03T09:12:19.380Z,-0.37
2018-03-03T09:13:19.271Z,-0.23
2018-03-03T09:14:19.292Z,-0.38
2018-03-03T09:15:19.094Z,-0.25
2018-03-03T09:16:19.101Z,-0.26
2018-03-03T09:17:18.928Z,-0.26
2018-03-03T09:18:18.908Z,-0.28
2018-03-03T09:19:18.769Z,-0.37
2018-03-03T09:20:18.716Z,-0.33
2018-03-03T09:21:18.595Z,-0.35
2018-03-03T09:22:18.624Z,-0.33
2018-03-03T09:23:18.478Z,-0.22
2018-03-03T09:24:18.349Z,-0.23
2018-03-03T09:25:18.266Z,-0.17
2018-03-03T09:26:20.295Z,-0.07
2018-03-03T09:27:18.102Z,-0.08
2018-03-03T09:28:18.021Z,-0.08
2018-03-03T09:29:17.965Z,0.01
2018-03-03T09:30:17.855Z,0.06
2018-03-03T09:31:17.773Z,0.09
2018-03-03T09:32:17.771Z,0.03
2018-03-03T09:33:17.601Z,-0.02
2018-03-03T09:34:17.578Z,0.06
2018-03-03T09:35:17.438Z,0.11
2018-03-03T09:36:17.388Z,0.11
2018-03-03T09:37:17.268Z,0.10
2018-03-03T09:38:17.296Z,0.13
2018-03-03T09:39:17.108Z,0.18
2018-03-03T09:40:17.105Z,0.28
2018-03-03T09:41:16.940Z,0.18
2018-03-03T09:42:16.917Z,0.16
2018-03-03T09:43:16.781Z,0.01
2018-03-03T09:44:16.721Z,0.06
2018-03-03T09:45:16.604Z,0.14
2018-03-03T09:46:16.533Z,0.25
2018-03-03T09:47:16.447Z,0.22
2018-03-03T09:48:16.450Z,0.24
2018-03-03T09:49:16.277Z,0.36
2018-03-03T09:50:16.251Z,0.34
2018-03-03T09:51:16.114Z,0.32
2018-03-03T09:52:16.047Z,0.34
2018-03-03T09:53:15.954Z,0.45
2018-03-03T09:54:15.968Z,0.47
2018-03-03T09:55:15.784Z,0.45
2018-03-03T09:56:15.776Z,0.47
2018-03-03T09:57:15.619Z,0.47
2018-03-03T09:58:15.583Z,0.57
2018-03-03T09:59:15.454Z,0.62
2018-03-03T10:00:15.392Z,0.72
2018-03-03T10:01:15.291Z,0.71
2018-03-03T10:02:15.306Z,0.79
2018-03-03T10:03:15.132Z,0.71
2018-03-03T10:04:15.111Z,0.82
2018-03-03T10:05:14.963Z,0.94
2018-03-03T10:06:14.920Z,1.02
2018-03-03T10:07:14.799Z,0.92
2018-03-03T10:08:14.830Z,0.97
2018-03-03T10:09:14.633Z,1.02
2018-03-03T10:10:14.639Z,1.08
2018-03-03T10:11:14.470Z,1.16
2018-03-03T10:12:14.446Z,1.22
2018-03-03T10:13:15.281Z,1.34
2018-03-03T10:14:14.254Z,1.41
2018-03-03T10:15:14.140Z,1.37
2018-03-03T10:16:14.209Z,1.44
2018-03-03T10:17:13.976Z,1.50
2018-03-03T10:18:13.973Z,1.48
2018-03-03T10:19:13.811Z,1.56
2018-03-03T10:20:13.781Z,1.69
2018-03-03T10:21:13.650Z,1.65
2018-03-03T10:22:13.588Z,1.77
2018-03-03T10:23:13.487Z,1.83
2018-03-03T10:24:13.499Z,1.95
2018-03-03T10:25:13.325Z,2.12
2018-03-03T10:26:13.309Z,2.17
2018-03-03T10:27:13.163Z,2.26
2018-03-03T10:28:13.093Z,2.41
2018-03-03T10:29:12.999Z,2.31
2018-03-03T10:30:13.027Z,2.48
2018-03-03T10:31:12.831Z,2.60
2018-03-03T10:32:12.834Z,2.77
2018-03-03T10:33:12.674Z,2.85
2018-03-03T10:34:12.645Z,2.85
2018-03-03T10:35:12.512Z,3.04
2018-03-03T10:36:12.451Z,3.07
2018-03-03T10:37:12.358Z,3.16
2018-03-03T10:38:12.362Z,3.22
2018-03-03T10:39:12.190Z,3.46
2018-03-03T10:40:12.174Z,3.54
2018-03-03T10:41:12.031Z,3.57
2018-03-03T10:42:11.978Z,3.64
2018-03-03T10:43:11.871Z,3.62
2018-03-03T10:44:11.892Z,3.64
2018-03-03T10:45:11.710Z,3.71
2018-03-03T10:46:11.694Z,3.75
2018-03-03T10:47:11.551Z,3.83
2018-03-03T10:48:11.517Z,3.87
2018-03-03T10:49:11.387Z,3.93
2018-03-03T10:50:11.414Z,3.86
2018-03-03T10:51:11.229Z,4.00
2018-03-03T10:52:11.222Z,4.10
2018-03-03T10:53:11.071Z,4.16
2018-03-03T10:54:11.034Z,4.32
2018-03-03T10:55:10.916Z,4.36
2018-03-03T10:56:10.945Z,4.41
2018-03-03T10:57:10.754Z,4.28
2018-03-03T10:58:10.754Z,4.16
2018-03-03T10:59:10.597Z,4.15
2018-03-03T11:00:10.566Z,3.97
2018-03-03T11:01:10.435Z,3.84
2018-03-03T11:02:10.365Z,3.77
2018-03-03T11:03:10.278Z,3.72
2018-03-03T11:04:10.274Z,3.72
2018-03-03T11:05:10.119Z,3.75
2018-03-03T11:06:10.090Z,3.72
2018-03-03T11:07:09.963Z,3.69
2018-03-03T11:08:09.999Z,3.77
2018-03-03T11:09:09.802Z,3.64
2018-03-03T11:10:09.806Z,3.71
2018-03-03T11:11:09.651Z,3.71
2018-03-03T11:12:09.614Z,3.71
2018-03-03T11:13:09.488Z,3.75
2018-03-03T11:14:09.524Z,3.77
2018-03-03T11:15:09.328Z,3.64
2018-03-03T11:16:09.334Z,3.72
2018-03-03T11:17:09.173Z,3.66
2018-03-03T11:18:09.147Z,3.84
2018-03-03T11:19:09.018Z,3.87
2018-03-03T11:20:08.949Z,3.90
2018-03-03T11:21:08.854Z,3.84
2018-03-03T11:22:08.861Z,3.97
2018-03-03T11:23:08.699Z,3.90
2018-03-03T11:24:08.669Z,4.01
2018-03-03T11:25:08.536Z,4.07
2018-03-03T11:26:08.480Z,4.04
2018-03-03T11:27:08.380Z,4.16
2018-03-03T11:28:08.388Z,4.28
2018-03-03T11:29:08.221Z,4.36
2018-03-03T11:30:08.197Z,4.16
2018-03-03T11:31:08.064Z,4.25
2018-03-03T11:32:07.984Z,4.20
2018-03-03T11:33:07.909Z,4.15
2018-03-03T11:34:07.963Z,4.26
2018-03-03T11:35:07.746Z,4.19
2018-03-03T11:36:07.770Z,4.05
2018-03-03T11:37:07.594Z,4.11
2018-03-03T11:38:07.518Z,4.12
2018-03-03T11:39:07.431Z,4.15
2018-03-03T11:40:07.388Z,4.12
2018-03-03T11:41:07.278Z,4.12
2018-03-03T11:42:07.298Z,4.15
2018-03-03T11:43:07.118Z,4.15
2018-03-03T11:44:07.108Z,4.18
2018-03-03T11:45:06.970Z,4.19
2018-03-03T11:46:06.916Z,4.15
2018-03-03T11:47:06.800Z,4.19
2018-03-03T11:48:06.852Z,4.08
2018-03-03T11:49:06.643Z,4.07
2018-03-03T11:50:06.637Z,4.00
2018-03-03T11:51:06.485Z,3.93
2018-03-03T11:52:06.446Z,3.89
2018-03-03T11:53:06.327Z,3.82
2018-03-03T11:54:06.357Z,3.74
2018-03-03T11:55:06.171Z,3.77
2018-03-03T11:56:06.165Z,3.72
2018-03-03T11:57:06.014Z,3.74
2018-03-03T11:58:05.937Z,3.65
2018-03-03T11:59:06.426Z,3.61
2018-03-03T12:00:05.775Z,3.62
2018-03-03T12:01:05.794Z,3.61
2018-03-03T12:02:05.612Z,3.64
2018-03-03T12:03:05.605Z,3.65
2018-03-03T12:04:05.455Z,3.72
2018-03-03T12:05:05.410Z,3.66
2018-03-03T12:06:05.295Z,3.59
2018-03-03T12:07:05.325Z,3.59
2018-03-03T12:08:05.138Z,3.64
2018-03-03T12:09:05.136Z,3.65
2018-03-03T12:10:04.979Z,3.71
2018-03-03T12:11:04.939Z,3.79
2018-03-03T12:12:04.818Z,3.82
2018-03-03T12:13:04.851Z,3.79
2018-03-03T12:14:04.659Z,3.93
2018-03-03T12:15:04.668Z,4.00
2018-03-03T12:16:04.505Z,3.98
2018-03-03T12:17:04.468Z,4.02
2018-03-03T12:18:04.343Z,4.02
2018-03-03T12:19:04.380Z,4.02
2018-03-03T12:20:04.184Z,4.02
2018-03-03T12:21:04.194Z,4.05
2018-03-03T12:22:04.025Z,4.08
2018-03-03T12:23:03.997Z,4.01
2018-03-03T12:24:03.865Z,3.93
2018-03-03T12:25:03.918Z,4.10
2018-03-03T12:26:03.705Z,4.02
2018-03-03T12:27:03.638Z,4.07
2018-03-03T12:28:03.623Z,4.07
2018-03-03T12:29:03.470Z,4.12
2018-03-03T12:30:03.535Z,4.04
2018-03-03T12:31:03.310Z,4.12
2018-03-03T12:32:03.340Z,4.19
2018-03-03T12:33:03.151Z,4.07
2018-03-03T12:34:03.256Z,4.04
2018-03-03T12:35:02.996Z,4.11
2018-03-03T12:36:03.064Z,4.05
2018-03-03T12:37:02.836Z,4.02
2018-03-03T12:38:02.875Z,4.04
2018-03-03T12:39:02.673Z,4.01
2018-03-03T12:40:02.783Z,4.15
2018-03-03T12:41:02.515Z,4.20
2018-03-03T12:42:02.489Z,4.34
2018-03-03T12:43:02.367Z,4.52
2018-03-03T12:44:02.300Z,4.54
2018-03-03T12:45:02.196Z,4.54
2018-03-03T12:46:02.211Z,4.56
2018-03-03T12:47:02.042Z,4.61
2018-03-03T12:48:02.022Z,4.56
2018-03-03T12:49:01.880Z,4.55
2018-03-03T12:50:01.932Z,4.43
2018-03-03T12:51:01.725Z,4.55
2018-03-03T12:52:01.741Z,4.65
2018-03-03T12:53:01.567Z,4.73
2018-03-03T12:54:01.550Z,4.62
2018-03-03T12:55:01.408Z,4.68
2018-03-03T12:56:01.358Z,4.68
2018-03-03T12:57:01.248Z,4.69
2018-03-03T12:58:01.181Z,4.83